Agrestina, Brazil
Current Conditions -  °F | °C
As of 8:00 AM on Saturday 25 Oct 2014 (Local Time) from SBRF Reporting Station
Scattered Clouds Scattered Clouds  
Wind Chill: 82°   Ceiling: Unl
Heat Index: 86°   Visibility: 6mi
Dew Point: 70°   Wind: 10mph
Humidity: 66%   Direction: 110°ESE
Pressure: 29.97"   Gusts: NA
Location:  8.46°S, 35.94°W
Report Text: SBRF 251100Z 11009KT 9999 FEW023 SCT070 28/21 Q1015
Loading
Personal Weather Stations






























Interactive Weather Map
Tropical Storm Tracking
New forecast layout! Learn more

10-Day Weather Forecast

Advertisements
Track Severe Weather on mobile